createdAt,value
2019-05-13T00:00:04.126Z,8.55
2019-05-13T00:01:07.154Z,8.55
2019-05-13T00:02:04.736Z,8.60
2019-05-13T00:03:04.083Z,8.53
2019-05-13T00:04:04.017Z,8.53
2019-05-13T00:05:04.101Z,8.55
2019-05-13T00:06:04.302Z,8.45
2019-05-13T00:07:04.739Z,8.55
2019-05-13T00:08:03.918Z,8.50
2019-05-13T00:09:03.919Z,8.51
2019-05-13T00:10:04.147Z,8.51
2019-05-13T00:11:04.443Z,8.45
2019-05-13T00:12:04.725Z,8.47
2019-05-13T00:13:04.655Z,8.47
2019-05-13T00:14:04.374Z,8.36
2019-05-13T00:15:03.866Z,8.36
2019-05-13T00:16:03.954Z,8.35
2019-05-13T00:17:04.268Z,8.35
2019-05-13T00:18:04.198Z,8.42
2019-05-13T00:19:04.147Z,8.36
2019-05-13T00:20:04.088Z,8.37
2019-05-13T00:21:03.846Z,8.33
2019-05-13T00:22:04.016Z,8.30
2019-05-13T00:23:04.127Z,8.33
2019-05-13T00:24:04.113Z,8.28
2019-05-13T00:25:04.007Z,8.25
2019-05-13T00:26:03.981Z,8.26
2019-05-13T00:27:04.087Z,8.29
2019-05-13T00:28:04.102Z,8.28
2019-05-13T00:29:04.152Z,8.28
2019-05-13T00:30:04.287Z,8.28
2019-05-13T00:31:03.516Z,8.29
2019-05-13T00:32:04.770Z,8.22
2019-05-13T00:33:03.787Z,8.25
2019-05-13T00:34:03.853Z,8.20
2019-05-13T00:35:03.955Z,8.17
2019-05-13T00:36:04.040Z,8.18
2019-05-13T00:37:11.230Z,8.12
2019-05-13T00:38:03.912Z,8.18
2019-05-13T00:39:03.925Z,8.12
2019-05-13T00:40:04.001Z,8.15
2019-05-13T00:41:03.706Z,8.17
2019-05-13T00:42:04.030Z,8.21
2019-05-13T00:43:03.924Z,8.15
2019-05-13T00:44:03.873Z,8.12
2019-05-13T00:45:04.067Z,8.10
2019-05-13T00:46:03.849Z,8.11
2019-05-13T00:47:04.493Z,8.11
2019-05-13T00:48:04.603Z,8.07
2019-05-13T00:49:04.810Z,8.11
2019-05-13T00:50:03.667Z,8.07
2019-05-13T00:51:03.842Z,8.04
2019-05-13T00:52:03.885Z,8.07
2019-05-13T00:53:04.438Z,8.12
2019-05-13T00:54:04.396Z,8.08
2019-05-13T00:55:04.283Z,8.11
2019-05-13T00:56:04.016Z,7.99
2019-05-13T00:57:04.199Z,8.00
2019-05-13T00:58:04.266Z,8.08
2019-05-13T00:59:03.695Z,7.97
2019-05-13T01:00:03.499Z,7.97
2019-05-13T01:01:03.624Z,7.97
2019-05-13T01:02:03.578Z,7.96
2019-05-13T01:03:04.159Z,8.03
2019-05-13T01:04:03.964Z,7.94
2019-05-13T01:05:04.331Z,7.93
2019-05-13T01:06:04.321Z,7.93
2019-05-13T01:07:04.384Z,7.97
2019-05-13T01:08:04.379Z,7.93
2019-05-13T01:09:04.116Z,7.90
2019-05-13T01:10:04.231Z,7.82
2019-05-13T01:11:04.231Z,7.79
2019-05-13T01:12:04.124Z,7.81
2019-05-13T01:13:04.582Z,7.84
2019-05-13T01:14:04.115Z,7.81
2019-05-13T01:15:04.026Z,7.84
2019-05-13T01:16:08.701Z,7.79
2019-05-13T01:17:03.910Z,7.82
2019-05-13T01:18:03.956Z,7.78
2019-05-13T01:19:04.044Z,7.69
2019-05-13T01:20:03.981Z,7.75
2019-05-13T01:21:04.178Z,7.75
2019-05-13T01:22:03.431Z,7.72
2019-05-13T01:23:03.682Z,7.75
2019-05-13T01:24:03.719Z,7.72
2019-05-13T01:25:03.915Z,7.74
2019-05-13T01:26:03.883Z,7.66
2019-05-13T01:27:03.805Z,7.72
2019-05-13T01:28:04.222Z,7.58
2019-05-13T01:29:03.977Z,7.63
2019-05-13T01:30:03.956Z,7.60
2019-05-13T01:31:03.961Z,7.66
2019-05-13T01:32:01.641Z,7.60
2019-05-13T01:33:01.509Z,7.56
2019-05-13T01:34:03.882Z,7.58
2019-05-13T01:35:01.451Z,7.56
2019-05-13T01:36:01.471Z,7.55
2019-05-13T01:37:01.403Z,7.47
2019-05-13T01:38:01.392Z,7.56
2019-05-13T01:39:01.342Z,7.52
2019-05-13T01:40:01.433Z,7.47
2019-05-13T01:41:01.292Z,7.44
2019-05-13T01:42:03.484Z,7.45
2019-05-13T01:43:03.381Z,7.41
2019-05-13T01:44:03.892Z,7.37
2019-05-13T01:45:01.200Z,7.41
2019-05-13T01:46:01.140Z,7.23
2019-05-13T01:47:01.143Z,7.23
2019-05-13T01:48:01.085Z,7.26
2019-05-13T01:49:01.152Z,7.20
2019-05-13T01:50:03.428Z,7.22
2019-05-13T01:51:03.560Z,7.23
2019-05-13T01:52:03.467Z,7.17
2019-05-13T01:53:00.984Z,7.17
2019-05-13T01:54:00.929Z,7.13
2019-05-13T01:55:00.992Z,7.09
2019-05-13T01:56:00.847Z,7.16
2019-05-13T01:57:00.901Z,7.07
2019-05-13T01:58:00.789Z,7.05
2019-05-13T01:59:00.810Z,7.09
2019-05-13T02:00:00.799Z,7.04
2019-05-13T02:01:00.724Z,7.07
2019-05-13T02:02:00.682Z,7.07
2019-05-13T02:03:00.740Z,7.05
2019-05-13T02:04:00.642Z,7.04
2019-05-13T02:05:00.649Z,7.05
2019-05-13T02:06:00.560Z,7.09
2019-05-13T02:07:00.540Z,6.95
2019-05-13T02:08:00.794Z,6.99
2019-05-13T02:09:00.573Z,6.97
2019-05-13T02:10:00.450Z,6.97
2019-05-13T02:11:00.503Z,6.99
2019-05-13T02:12:00.391Z,6.94
2019-05-13T02:13:00.398Z,6.95
2019-05-13T02:14:00.335Z,6.98
2019-05-13T02:15:00.411Z,6.97
2019-05-13T02:16:00.268Z,6.95
2019-05-13T02:17:00.317Z,6.95
2019-05-13T02:18:00.220Z,6.91
2019-05-13T02:19:00.239Z,6.94
2019-05-13T02:20:00.158Z,6.91
2019-05-13T02:21:00.156Z,6.86
2019-05-13T02:22:00.109Z,6.95
2019-05-13T02:23:00.087Z,6.86
2019-05-13T02:24:00.037Z,6.89
2019-05-13T02:25:00.078Z,6.86
2019-05-13T02:25:59.991Z,6.87
2019-05-13T02:26:59.988Z,6.72
2019-05-13T02:27:59.930Z,6.87
2019-05-13T02:28:59.998Z,6.76
2019-05-13T02:29:59.869Z,6.76
2019-05-13T02:30:59.908Z,6.65
2019-05-13T02:32:02.710Z,6.65
2019-05-13T02:33:02.940Z,6.61
2019-05-13T02:34:02.521Z,6.54
2019-05-13T02:35:02.714Z,6.47
2019-05-13T02:36:02.590Z,6.40
2019-05-13T02:37:02.844Z,6.46
2019-05-13T02:38:18.432Z,6.35
2019-05-13T02:39:02.210Z,6.35
2019-05-13T02:40:03.213Z,6.30
2019-05-13T02:41:02.595Z,6.25
2019-05-13T02:42:03.022Z,6.28
2019-05-13T02:43:02.706Z,6.28
2019-05-13T02:44:03.224Z,6.22
2019-05-13T02:45:03.407Z,6.10
2019-05-13T02:45:59.509Z,6.06
2019-05-13T02:47:02.957Z,6.04
2019-05-13T02:48:02.390Z,6.00
2019-05-13T02:48:59.318Z,6.03
2019-05-13T02:50:01.931Z,5.95
2019-05-13T02:50:59.261Z,5.91
2019-05-13T02:52:02.439Z,5.86
2019-05-13T02:53:02.105Z,5.85
2019-05-13T02:53:59.262Z,5.83
2019-05-13T02:54:59.156Z,5.86
2019-05-13T02:55:59.170Z,5.92
2019-05-13T02:56:59.092Z,5.81
2019-05-13T02:57:59.087Z,5.82
2019-05-13T02:58:59.029Z,5.83
2019-05-13T02:59:58.997Z,5.81
2019-05-13T03:00:58.982Z,5.71
2019-05-13T03:01:59.044Z,5.71
2019-05-13T03:02:58.908Z,5.73
2019-05-13T03:03:58.919Z,5.74
2019-05-13T03:04:58.979Z,5.70
2019-05-13T03:05:58.829Z,5.67
2019-05-13T03:06:58.837Z,5.67
2019-05-13T03:07:58.760Z,5.67
2019-05-13T03:08:58.861Z,5.59
2019-05-13T03:09:58.712Z,5.67
2019-05-13T03:10:58.771Z,5.55
2019-05-13T03:11:58.665Z,5.49
2019-05-13T03:12:58.677Z,5.53
2019-05-13T03:13:58.591Z,5.50
2019-05-13T03:14:58.724Z,5.50
2019-05-13T03:15:58.533Z,5.49
2019-05-13T03:16:58.613Z,5.48
2019-05-13T03:17:58.469Z,5.48
2019-05-13T03:18:58.507Z,5.48
2019-05-13T03:19:58.409Z,5.46
2019-05-13T03:20:58.379Z,5.34
2019-05-13T03:21:58.363Z,5.35
2019-05-13T03:22:58.439Z,5.37
2019-05-13T03:23:58.322Z,5.38
2019-05-13T03:24:58.360Z,5.38
2019-05-13T03:25:58.233Z,5.35
2019-05-13T03:26:58.258Z,5.31
2019-05-13T03:27:58.180Z,5.25
2019-05-13T03:28:58.179Z,5.27
2019-05-13T03:29:58.119Z,5.25
2019-05-13T03:30:58.190Z,5.30
2019-05-13T03:31:58.058Z,5.34
2019-05-13T03:33:02.287Z,5.34
2019-05-13T03:33:58.000Z,5.25
2019-05-13T03:34:58.009Z,5.16
2019-05-13T03:35:57.953Z,5.14
2019-05-13T03:36:58.246Z,5.17
2019-05-13T03:37:57.933Z,5.19
2019-05-13T03:39:05.532Z,5.16
2019-05-13T03:39:57.827Z,5.13
2019-05-13T03:40:57.862Z,5.17
2019-05-13T03:41:57.869Z,5.17
2019-05-13T03:42:57.730Z,5.16
2019-05-13T03:43:57.769Z,5.19
2019-05-13T03:44:57.679Z,5.19
2019-05-13T03:45:57.679Z,5.16
2019-05-13T03:46:57.616Z,5.17
2019-05-13T03:47:57.598Z,5.17
2019-05-13T03:48:57.598Z,5.19
2019-05-13T03:49:57.521Z,5.19
2019-05-13T03:50:57.508Z,5.20
2019-05-13T03:51:57.473Z,5.16
2019-05-13T03:52:57.430Z,5.20
2019-05-13T03:53:57.428Z,5.12
2019-05-13T03:54:57.380Z,5.17
2019-05-13T03:55:57.440Z,5.12
2019-05-13T03:56:57.319Z,5.17
2019-05-13T03:57:57.288Z,5.19
2019-05-13T03:58:57.258Z,5.28
2019-05-13T03:59:57.267Z,5.31
2019-05-13T04:00:57.210Z,5.19
2019-05-13T04:01:57.279Z,5.28
2019-05-13T04:02:57.146Z,5.22
2019-05-13T04:03:57.193Z,5.31
2019-05-13T04:04:59.298Z,5.23
2019-05-13T04:05:57.098Z,5.28
2019-05-13T04:06:57.039Z,5.31
2019-05-13T04:07:57.024Z,5.25
2019-05-13T04:09:17.317Z,5.17
2019-05-13T04:09:56.930Z,5.10
2019-05-13T04:10:56.937Z,5.17
2019-05-13T04:11:56.883Z,5.12
2019-05-13T04:12:56.860Z,5.14
2019-05-13T04:13:56.848Z,5.16
2019-05-13T04:14:56.780Z,5.23
2019-05-13T04:15:56.772Z,5.20
2019-05-13T04:16:56.730Z,5.10
2019-05-13T04:17:56.791Z,5.05
2019-05-13T04:18:56.663Z,5.22
2019-05-13T04:19:56.716Z,5.17
2019-05-13T04:20:56.602Z,5.12
2019-05-13T04:21:56.639Z,5.19
2019-05-13T04:22:56.538Z,5.13
2019-05-13T04:23:56.631Z,5.19
2019-05-13T04:24:56.478Z,5.17
2019-05-13T04:25:56.528Z,5.19
2019-05-13T04:26:56.418Z,5.23
2019-05-13T04:27:56.437Z,5.23
2019-05-13T04:28:56.376Z,5.20
2019-05-13T04:29:56.332Z,5.28
2019-05-13T04:30:56.300Z,5.31
2019-05-13T04:31:56.367Z,5.35
2019-05-13T04:32:56.242Z,5.30
2019-05-13T04:33:56.276Z,5.31
2019-05-13T04:34:56.178Z,5.27
2019-05-13T04:35:56.190Z,5.38
2019-05-13T04:36:56.118Z,5.37
2019-05-13T04:37:56.099Z,5.43
2019-05-13T04:38:56.058Z,5.43
2019-05-13T04:39:56.675Z,5.48
2019-05-13T04:40:56.004Z,5.43
2019-05-13T04:41:56.028Z,5.48
2019-05-13T04:42:55.941Z,5.53
2019-05-13T04:43:55.969Z,5.56
2019-05-13T04:44:55.882Z,5.59
2019-05-13T04:45:55.856Z,5.55
2019-05-13T04:46:55.870Z,5.59
2019-05-13T04:47:55.789Z,5.64
2019-05-13T04:48:55.873Z,5.68
2019-05-13T04:49:55.744Z,5.63
2019-05-13T04:50:55.702Z,5.74
2019-05-13T04:51:55.691Z,5.75
2019-05-13T04:52:55.696Z,5.68
2019-05-13T04:53:57.335Z,5.71
2019-05-13T04:54:55.608Z,5.78
2019-05-13T04:55:55.600Z,5.82
2019-05-13T04:56:55.619Z,5.83
2019-05-13T04:57:55.488Z,5.78
2019-05-13T04:58:55.538Z,5.83
2019-05-13T04:59:55.438Z,5.82
2019-05-13T05:01:02.343Z,5.85
2019-05-13T05:01:59.182Z,5.85
2019-05-13T05:02:55.658Z,5.89
2019-05-13T05:03:55.307Z,5.93
2019-05-13T05:04:55.373Z,5.98
2019-05-13T05:05:55.257Z,5.95
2019-05-13T05:06:55.228Z,6.06
2019-05-13T05:07:55.210Z,6.11
2019-05-13T05:08:55.205Z,6.16
2019-05-13T05:10:16.031Z,6.21
2019-05-13T05:10:55.208Z,6.25
2019-05-13T05:11:55.070Z,6.28
2019-05-13T05:12:55.117Z,6.41
2019-05-13T05:13:56.745Z,6.36
2019-05-13T05:14:55.039Z,6.47
2019-05-13T05:15:54.965Z,6.53
2019-05-13T05:16:54.954Z,6.44
2019-05-13T05:17:54.904Z,6.53
2019-05-13T05:18:54.957Z,6.61
2019-05-13T05:19:54.840Z,6.58
2019-05-13T05:20:54.887Z,6.65
2019-05-13T05:21:55.561Z,6.58
2019-05-13T05:22:54.751Z,6.59
2019-05-13T05:23:54.716Z,6.66
2019-05-13T05:24:54.797Z,6.68
2019-05-13T05:25:54.657Z,6.73
2019-05-13T05:26:54.725Z,6.80
2019-05-13T05:27:57.920Z,6.79
2019-05-13T05:28:54.568Z,6.73
2019-05-13T05:29:54.633Z,6.73
2019-05-13T05:30:54.517Z,6.69
2019-05-13T05:31:54.539Z,6.76
2019-05-13T05:32:54.450Z,6.95
2019-05-13T05:33:54.446Z,6.90
2019-05-13T05:34:54.389Z,6.89
2019-05-13T05:35:54.474Z,6.94
2019-05-13T05:36:54.336Z,6.94
2019-05-13T05:37:54.379Z,6.91
2019-05-13T05:38:54.279Z,7.08
2019-05-13T05:39:54.287Z,7.08
2019-05-13T05:40:54.228Z,7.08
2019-05-13T05:41:54.310Z,7.04
2019-05-13T05:42:54.157Z,7.13
2019-05-13T05:43:54.129Z,7.07
2019-05-13T05:44:54.098Z,7.13
2019-05-13T05:45:54.127Z,7.23
2019-05-13T05:46:54.041Z,7.26
2019-05-13T05:47:54.049Z,7.26
2019-05-13T05:48:54.048Z,7.24
2019-05-13T05:49:53.959Z,7.23
2019-05-13T05:50:53.968Z,7.31
2019-05-13T05:51:53.899Z,7.40
2019-05-13T05:52:53.967Z,7.40
2019-05-13T05:53:53.842Z,7.40
2019-05-13T05:54:53.808Z,7.38
2019-05-13T05:55:54.928Z,7.41
2019-05-13T05:56:53.749Z,7.56
2019-05-13T05:57:53.799Z,7.56
2019-05-13T05:58:53.687Z,7.50
2019-05-13T05:59:53.661Z,7.52
2019-05-13T06:00:53.718Z,7.63
2019-05-13T06:01:53.598Z,7.66
2019-05-13T06:02:53.631Z,7.72
2019-05-13T06:03:53.539Z,7.82
2019-05-13T06:04:53.520Z,7.81
2019-05-13T06:05:53.487Z,7.77
2019-05-13T06:06:53.556Z,7.84
2019-05-13T06:07:53.428Z,7.89
2019-05-13T06:08:53.469Z,7.84
2019-05-13T06:09:53.382Z,7.89
2019-05-13T06:10:53.909Z,8.02
2019-05-13T06:11:53.309Z,8.02
2019-05-13T06:12:53.401Z,8.07
2019-05-13T06:13:54.723Z,8.10
2019-05-13T06:14:53.309Z,8.17
2019-05-13T06:15:53.206Z,8.14
2019-05-13T06:16:53.171Z,8.10
2019-05-13T06:17:53.227Z,8.22
2019-05-13T06:18:53.129Z,8.30
2019-05-13T06:19:53.158Z,8.28
2019-05-13T06:20:53.149Z,8.36
2019-05-13T06:21:53.040Z,8.37
2019-05-13T06:22:53.067Z,8.40
2019-05-13T06:23:52.973Z,8.51
2019-05-13T06:24:52.968Z,8.55
2019-05-13T06:25:52.974Z,8.60
2019-05-13T06:26:53.012Z,8.65
2019-05-13T06:27:52.859Z,8.62
2019-05-13T06:28:52.898Z,8.58
2019-05-13T06:29:53.103Z,8.65
2019-05-13T06:30:52.811Z,8.73
2019-05-13T06:31:52.749Z,8.75
2019-05-13T06:32:52.818Z,8.72
2019-05-13T06:33:52.681Z,8.87
2019-05-13T06:34:52.758Z,8.86
2019-05-13T06:35:52.629Z,8.83
2019-05-13T06:36:52.601Z,8.93
2019-05-13T06:37:52.572Z,8.93
2019-05-13T06:38:52.657Z,9.05
2019-05-13T06:39:52.523Z,9.09
2019-05-13T06:41:03.363Z,9.05
2019-05-13T06:41:52.479Z,9.13
2019-05-13T06:42:52.427Z,9.27
2019-05-13T06:43:52.575Z,9.32
2019-05-13T06:44:52.372Z,9.42
2019-05-13T06:45:52.397Z,9.45
2019-05-13T06:46:52.330Z,9.42
2019-05-13T06:47:52.343Z,9.45
2019-05-13T06:48:52.263Z,9.34
2019-05-13T06:49:52.333Z,9.31
2019-05-13T06:50:52.290Z,9.40
2019-05-13T06:51:52.886Z,9.38
2019-05-13T06:52:52.187Z,9.39
2019-05-13T06:53:52.152Z,9.46
2019-05-13T06:54:52.226Z,9.49
2019-05-13T06:55:53.091Z,9.46
2019-05-13T06:56:52.028Z,9.60
2019-05-13T06:57:52.009Z,9.64
2019-05-13T06:58:52.200Z,9.64
2019-05-13T06:59:52.531Z,9.71
2019-05-13T07:00:52.023Z,9.71
2019-05-13T07:01:51.912Z,9.78
2019-05-13T07:02:51.973Z,9.82
2019-05-13T07:03:51.989Z,9.71
2019-05-13T07:04:51.933Z,9.89
2019-05-13T07:05:52.474Z,9.88
2019-05-13T07:07:07.686Z,9.85
2019-05-13T07:07:51.841Z,9.93
2019-05-13T07:08:52.250Z,9.89
2019-05-13T07:09:51.949Z,9.93
2019-05-13T07:10:51.732Z,10.06
2019-05-13T07:11:51.957Z,10.03
2019-05-13T07:12:52.035Z,10.10
2019-05-13T07:13:51.806Z,10.12
2019-05-13T07:14:51.974Z,10.15
2019-05-13T07:15:52.245Z,10.07
2019-05-13T07:16:52.426Z,10.26
2019-05-13T07:17:52.091Z,10.30
2019-05-13T07:18:52.370Z,10.37
2019-05-13T07:19:51.805Z,10.44
2019-05-13T07:20:53.007Z,10.42
2019-05-13T07:21:52.090Z,10.40
2019-05-13T07:22:53.177Z,10.43
2019-05-13T07:23:54.776Z,10.52
2019-05-13T07:24:51.938Z,10.60
2019-05-13T07:25:52.475Z,10.56
2019-05-13T07:26:52.328Z,10.62
2019-05-13T07:27:51.572Z,10.65
2019-05-13T07:28:52.405Z,10.66
2019-05-13T07:29:53.611Z,10.63
2019-05-13T07:30:51.740Z,10.62
2019-05-13T07:31:52.219Z,10.60
2019-05-13T07:32:52.390Z,10.71
2019-05-13T07:33:51.731Z,10.80
2019-05-13T07:34:53.145Z,10.78
2019-05-13T07:35:57.314Z,10.89
2019-05-13T07:36:51.362Z,10.95
2019-05-13T07:37:51.740Z,10.98
2019-05-13T07:38:52.043Z,10.94
2019-05-13T07:39:53.003Z,10.86
2019-05-13T07:40:52.168Z,10.81
2019-05-13T07:41:52.033Z,10.88
2019-05-13T07:42:52.278Z,10.88
2019-05-13T07:43:51.744Z,10.89
2019-05-13T07:44:52.184Z,10.81
2019-05-13T07:45:51.374Z,10.86
2019-05-13T07:46:52.431Z,10.91
2019-05-13T07:47:52.038Z,10.95
2019-05-13T07:48:52.095Z,11.02
2019-05-13T07:49:51.557Z,11.01
2019-05-13T07:50:59.589Z,11.03
2019-05-13T07:51:52.093Z,11.06
2019-05-13T07:52:51.496Z,11.03
2019-05-13T07:53:51.782Z,11.01
2019-05-13T07:54:52.075Z,11.02
2019-05-13T07:55:52.501Z,11.06
2019-05-13T07:56:52.327Z,11.02
2019-05-13T07:57:51.487Z,11.06
2019-05-13T07:58:52.364Z,11.02
2019-05-13T07:59:52.425Z,11.01
2019-05-13T08:00:51.965Z,11.02
2019-05-13T08:01:52.175Z,11.01
2019-05-13T08:02:52.281Z,11.01
2019-05-13T08:03:51.574Z,11.10
2019-05-13T08:04:52.874Z,11.10
2019-05-13T08:05:51.310Z,11.14
2019-05-13T08:06:52.404Z,11.29
2019-05-13T08:07:51.534Z,11.36
2019-05-13T08:08:52.281Z,11.36
2019-05-13T08:09:51.825Z,11.38
2019-05-13T08:10:51.956Z,11.36
2019-05-13T08:12:04.392Z,11.44
2019-05-13T08:12:51.670Z,11.46
2019-05-13T08:13:51.745Z,11.50
2019-05-13T08:14:52.186Z,11.61
2019-05-13T08:15:54.399Z,11.54
2019-05-13T08:16:51.802Z,11.56
2019-05-13T08:17:52.516Z,11.64
2019-05-13T08:18:52.147Z,11.70
2019-05-13T08:19:52.057Z,11.72
2019-05-13T08:20:52.276Z,11.71
2019-05-13T08:21:51.394Z,11.71
2019-05-13T08:22:51.966Z,11.85
2019-05-13T08:23:52.231Z,11.77
2019-05-13T08:24:52.038Z,11.65
2019-05-13T08:25:51.476Z,11.77
2019-05-13T08:26:50.710Z,11.65
2019-05-13T08:27:51.477Z,11.77
2019-05-13T08:29:00.085Z,11.82
2019-05-13T08:29:51.982Z,11.82
2019-05-13T08:30:51.664Z,11.94
2019-05-13T08:31:51.669Z,12.01
2019-05-13T08:32:49.448Z,12.15
2019-05-13T08:33:51.780Z,12.19
2019-05-13T08:34:54.314Z,12.24
2019-05-13T08:35:54.009Z,12.30
2019-05-13T08:36:51.429Z,12.42
2019-05-13T08:37:51.848Z,12.52
2019-05-13T08:38:51.914Z,12.51
2019-05-13T08:39:52.009Z,12.56
2019-05-13T08:40:51.199Z,12.63
2019-05-13T08:41:51.395Z,12.62
2019-05-13T08:42:49.191Z,12.71
2019-05-13T08:43:49.247Z,12.85
2019-05-13T08:44:52.024Z,12.89
2019-05-13T08:45:51.702Z,13.07
2019-05-13T08:46:49.088Z,13.32
2019-05-13T08:47:51.211Z,13.43
2019-05-13T08:48:51.604Z,13.52
2019-05-13T08:49:49.078Z,13.51
2019-05-13T08:50:48.979Z,13.54
2019-05-13T08:51:48.999Z,13.54
2019-05-13T08:52:51.107Z,13.55
2019-05-13T08:53:48.909Z,13.62
2019-05-13T08:54:48.911Z,13.61
2019-05-13T08:55:51.567Z,13.73
2019-05-13T08:56:48.927Z,13.80
2019-05-13T08:57:51.181Z,13.94
2019-05-13T08:58:48.789Z,14.10
2019-05-13T08:59:51.298Z,14.13
2019-05-13T09:00:48.767Z,14.28
2019-05-13T09:01:48.709Z,14.29
2019-05-13T09:02:48.779Z,14.34
2019-05-13T09:03:48.673Z,14.57
2019-05-13T09:04:48.679Z,14.93
2019-05-13T09:05:48.611Z,14.93
2019-05-13T09:06:48.694Z,15.15
2019-05-13T09:07:48.549Z,15.31
2019-05-13T09:08:48.601Z,15.68
2019-05-13T09:09:48.501Z,15.89
2019-05-13T09:10:48.519Z,16.12
2019-05-13T09:11:48.456Z,16.16
2019-05-13T09:12:48.529Z,15.96
2019-05-13T09:13:48.398Z,15.67
2019-05-13T09:14:48.370Z,15.52
2019-05-13T09:15:48.449Z,15.49
2019-05-13T09:16:48.331Z,15.70
2019-05-13T09:17:48.369Z,16.11
2019-05-13T09:18:48.279Z,16.25
2019-05-13T09:19:48.261Z,16.26
2019-05-13T09:20:48.238Z,16.07
2019-05-13T09:21:48.292Z,16.14
2019-05-13T09:22:48.179Z,16.26
2019-05-13T09:23:48.197Z,16.37
2019-05-13T09:24:48.129Z,16.65
2019-05-13T09:25:48.209Z,16.86
2019-05-13T09:26:48.072Z,17.07
2019-05-13T09:27:48.129Z,17.26
2019-05-13T09:28:48.038Z,17.23
2019-05-13T09:29:48.039Z,17.08
2019-05-13T09:30:47.989Z,17.08
2019-05-13T09:31:48.061Z,17.13
2019-05-13T09:32:47.949Z,17.06
2019-05-13T09:33:47.963Z,17.23
2019-05-13T09:34:47.901Z,17.57
2019-05-13T09:35:50.135Z,17.94
2019-05-13T09:36:47.853Z,17.94
2019-05-13T09:37:47.892Z,17.91
2019-05-13T09:38:47.798Z,18.00
2019-05-13T09:39:47.798Z,18.00
2019-05-13T09:40:47.747Z,17.95
2019-05-13T09:41:47.818Z,18.15
2019-05-13T09:42:51.866Z,18.15
2019-05-13T09:43:47.729Z,18.40
2019-05-13T09:44:47.658Z,18.65
2019-05-13T09:45:47.738Z,18.76
2019-05-13T09:46:47.618Z,18.95
2019-05-13T09:47:47.647Z,18.97
2019-05-13T09:48:47.557Z,19.10
2019-05-13T09:49:47.568Z,19.21
2019-05-13T09:50:47.509Z,19.11
2019-05-13T09:51:47.496Z,19.36
2019-05-13T09:52:47.500Z,19.55
2019-05-13T09:53:47.490Z,19.72
2019-05-13T09:54:47.442Z,19.97
2019-05-13T09:55:47.535Z,20.06
2019-05-13T09:56:47.412Z,19.98
2019-05-13T09:57:47.371Z,19.55
2019-05-13T09:58:47.420Z,18.86
2019-05-13T09:59:47.309Z,18.36
2019-05-13T10:00:47.509Z,18.02
2019-05-13T10:01:47.261Z,17.99
2019-05-13T10:02:47.348Z,18.21
2019-05-13T10:03:54.786Z,18.29
2019-05-13T10:04:47.199Z,17.92
2019-05-13T10:05:47.270Z,17.63
2019-05-13T10:06:47.148Z,17.48
2019-05-13T10:07:47.130Z,17.71
2019-05-13T10:08:47.209Z,17.94
2019-05-13T10:09:48.343Z,18.13
2019-05-13T10:10:47.101Z,18.44
2019-05-13T10:11:47.039Z,18.74
2019-05-13T10:13:07.064Z,18.91
2019-05-13T10:13:46.988Z,19.23
2019-05-13T10:14:47.029Z,19.57
2019-05-13T10:15:48.864Z,19.69
2019-05-13T10:16:47.039Z,19.75
2019-05-13T10:17:46.910Z,19.72
2019-05-13T10:18:46.948Z,19.51
2019-05-13T10:19:46.857Z,19.57
2019-05-13T10:20:46.864Z,19.84
2019-05-13T10:21:46.817Z,20.16
2019-05-13T10:22:46.881Z,20.43
2019-05-13T10:23:46.767Z,20.47
2019-05-13T10:24:46.787Z,20.58
2019-05-13T10:25:46.728Z,20.61
2019-05-13T10:26:46.798Z,20.59
2019-05-13T10:27:46.691Z,20.84
2019-05-13T10:28:46.663Z,20.87
2019-05-13T10:29:46.647Z,21.06
2019-05-13T10:30:46.766Z,21.04
2019-05-13T10:31:46.598Z,21.16
2019-05-13T10:32:46.649Z,21.14
2019-05-13T10:33:46.649Z,21.39
2019-05-13T10:34:46.535Z,21.26
2019-05-13T10:35:46.559Z,21.20
2019-05-13T10:36:46.488Z,21.29
2019-05-13T10:37:46.582Z,21.21
2019-05-13T10:38:46.450Z,21.21
2019-05-13T10:39:46.437Z,21.19
2019-05-13T10:40:46.491Z,21.17
2019-05-13T10:41:46.387Z,21.06
2019-05-13T10:42:46.419Z,21.23
2019-05-13T10:43:46.359Z,21.30
2019-05-13T10:44:46.328Z,21.35
2019-05-13T10:45:46.319Z,21.51
2019-05-13T10:46:46.278Z,21.51
2019-05-13T10:47:47.359Z,21.53
2019-05-13T10:48:46.238Z,21.45
2019-05-13T10:49:46.230Z,21.50
2019-05-13T10:50:46.257Z,21.53
2019-05-13T10:51:46.189Z,21.78
2019-05-13T10:52:46.274Z,21.81
2019-05-13T10:53:46.141Z,22.09
2019-05-13T10:54:46.121Z,22.19
2019-05-13T10:55:46.103Z,22.22
2019-05-13T10:56:46.088Z,21.74
2019-05-13T10:57:46.060Z,21.41
2019-05-13T10:58:47.128Z,21.16
2019-05-13T10:59:46.022Z,21.01
2019-05-13T11:00:46.003Z,20.96
2019-05-13T11:01:46.051Z,21.05
2019-05-13T11:02:45.968Z,21.05
2019-05-13T11:03:46.052Z,20.98
2019-05-13T11:04:45.930Z,21.19
2019-05-13T11:05:45.909Z,21.21
2019-05-13T11:06:45.885Z,21.46
2019-05-13T11:07:45.975Z,21.44
2019-05-13T11:08:45.827Z,21.63
2019-05-13T11:09:45.890Z,21.71
2019-05-13T11:10:45.913Z,21.91
2019-05-13T11:11:45.769Z,22.01
2019-05-13T11:12:45.808Z,22.09
2019-05-13T11:13:55.155Z,21.94
2019-05-13T11:14:46.664Z,21.59
2019-05-13T11:15:45.981Z,21.66
2019-05-13T11:16:45.717Z,21.79
2019-05-13T11:17:45.650Z,22.12
2019-05-13T11:18:45.742Z,22.28
2019-05-13T11:19:45.610Z,22.54
2019-05-13T11:20:45.655Z,22.72
2019-05-13T11:21:50.476Z,22.86
2019-05-13T11:22:45.560Z,22.49
2019-05-13T11:23:45.569Z,22.28
2019-05-13T11:24:45.518Z,22.13
2019-05-13T11:25:45.582Z,22.17
2019-05-13T11:26:45.493Z,22.34
2019-05-13T11:27:45.460Z,22.50
2019-05-13T11:28:45.500Z,22.38
2019-05-13T11:29:45.417Z,22.32
2019-05-13T11:30:45.413Z,22.29
2019-05-13T11:31:45.379Z,22.34
2019-05-13T11:32:45.430Z,22.35
2019-05-13T11:33:45.339Z,22.23
2019-05-13T11:34:45.353Z,21.78
2019-05-13T11:35:45.312Z,21.76
2019-05-13T11:36:45.351Z,21.74
2019-05-13T11:37:45.358Z,21.98
2019-05-13T11:38:45.239Z,22.06
2019-05-13T11:39:45.268Z,21.83
2019-05-13T11:40:45.209Z,21.53
2019-05-13T11:41:45.288Z,21.63
2019-05-13T11:42:45.189Z,21.85
2019-05-13T11:43:45.150Z,21.81
2019-05-13T11:44:45.212Z,21.83
2019-05-13T11:45:45.112Z,22.04
2019-05-13T11:46:45.129Z,22.01
2019-05-13T11:47:45.070Z,22.25
2019-05-13T11:48:45.132Z,22.25
2019-05-13T11:49:45.040Z,22.32
2019-05-13T11:50:50.114Z,22.50
2019-05-13T11:51:45.002Z,22.60
2019-05-13T11:52:45.066Z,22.64
2019-05-13T11:53:44.962Z,22.38
2019-05-13T11:54:44.971Z,21.76
2019-05-13T11:55:44.919Z,21.67
2019-05-13T11:56:49.778Z,21.51
2019-05-13T11:57:44.890Z,21.23
2019-05-13T11:58:44.859Z,21.27
2019-05-13T11:59:44.857Z,21.38
2019-05-13T12:00:44.909Z,21.35
2019-05-13T12:01:44.807Z,21.69
2019-05-13T12:02:51.031Z,22.01
2019-05-13T12:03:44.851Z,22.38
2019-05-13T12:04:44.750Z,22.50
2019-05-13T12:05:44.871Z,22.34
2019-05-13T12:07:44.751Z,22.46
2019-05-13T12:08:51.053Z,22.38
2019-05-13T12:09:44.656Z,22.31
2019-05-13T12:10:44.670Z,21.90
2019-05-13T12:11:44.619Z,21.53
2019-05-13T12:12:44.689Z,21.27
2019-05-13T12:13:44.587Z,21.09
2019-05-13T12:15:48.898Z,21.14
2019-05-13T12:16:44.528Z,21.27
2019-05-13T12:17:44.519Z,21.53
2019-05-13T12:18:44.529Z,21.88
2019-05-13T12:19:44.538Z,22.13
2019-05-13T12:20:44.457Z,22.25
2019-05-13T12:21:46.682Z,22.28
2019-05-13T12:22:44.418Z,22.34
2019-05-13T12:23:44.458Z,22.47
2019-05-13T12:24:44.391Z,21.91
2019-05-13T12:25:44.403Z,21.71
2019-05-13T12:26:44.340Z,21.20
2019-05-13T12:27:44.388Z,21.09
2019-05-13T12:28:44.296Z,21.17
2019-05-13T12:29:44.297Z,21.42
2019-05-13T12:30:44.258Z,21.59
2019-05-13T12:31:44.305Z,21.79
2019-05-13T12:32:44.227Z,21.99
2019-05-13T12:33:44.262Z,22.28
2019-05-13T12:34:45.734Z,22.41
2019-05-13T12:35:44.169Z,22.52
2019-05-13T12:36:44.261Z,22.60
2019-05-13T12:37:44.131Z,22.69
2019-05-13T12:38:44.545Z,22.78
2019-05-13T12:39:44.270Z,22.97
2019-05-13T12:40:44.079Z,22.99
2019-05-13T12:41:44.106Z,23.17
2019-05-13T12:42:47.114Z,23.31
2019-05-13T12:43:44.018Z,23.38
2019-05-13T12:45:00.480Z,23.40
2019-05-13T12:45:43.984Z,23.45
2019-05-13T12:47:44.018Z,23.17
2019-05-13T12:48:43.927Z,23.02
2019-05-13T12:49:44.272Z,22.92
2019-05-13T12:50:43.898Z,22.75
2019-05-13T12:51:44.224Z,22.43
2019-05-13T12:52:44.100Z,22.47
2019-05-13T12:53:43.848Z,22.71
2019-05-13T12:54:44.771Z,22.77
2019-05-13T12:55:43.866Z,22.94
2019-05-13T12:56:43.868Z,23.04
2019-05-13T12:57:43.782Z,23.31
2019-05-13T12:58:43.788Z,23.50
2019-05-13T12:59:43.748Z,23.57
2019-05-13T13:00:43.798Z,23.39
2019-05-13T13:01:43.686Z,23.34
2019-05-13T13:02:50.360Z,23.09
2019-05-13T13:03:43.668Z,23.08
2019-05-13T13:05:07.967Z,23.20
2019-05-13T13:05:43.631Z,23.31
2019-05-13T13:06:45.294Z,23.42
2019-05-13T13:07:43.581Z,23.22
2019-05-13T13:08:48.924Z,23.12